Time;durP1;ratioP1;P1;durP2;ratioP2;P2;SDS_P1;SDS_P2;PMS_P1;PMS_P2;Temp;Humidity;BMP_temperature;BMP_pressure;BME280_temperature;BME280_humidity;BME280_pressure;Samples;Min_cycle;Max_cycle;Signal;HPM_P1;HPM_P2
2023/07/15 00:01:55;;;;;;;6.00;4.30;;;;;;;15.42;63.81;100261.83;131157;1265;107223;-72
2023/07/15 00:05:01;;;;;;;6.60;4.20;;;;;;;15.34;64.11;100257.08;131191;1254;107512;-72
2023/07/15 00:08:07;;;;;;;5.70;4.30;;;;;;;15.27;64.27;100257.86;131236;1256;107465;-72
2023/07/15 00:11:17;;;;;;;6.10;4.80;;;;;;;15.27;64.26;100257.68;131090;1256;107356;-72
2023/07/15 00:14:25;;;;;;;5.80;4.50;;;;;;;15.23;64.43;100254.44;131018;1259;107935;-72
2023/07/15 00:17:31;;;;;;;6.50;4.70;;;;;;;15.23;64.38;100260.02;131127;1255;107593;-72
2023/07/15 00:20:37;;;;;;;5.80;4.40;;;;;;;15.20;64.30;100255.80;130948;1253;107518;-72
2023/07/15 00:23:42;;;;;;;7.20;4.90;;;;;;;15.15;64.36;100258.61;131163;1253;107262;-73
2023/07/15 00:26:48;;;;;;;7.20;4.90;;;;;;;15.10;64.58;100252.58;131185;1256;107835;-72
2023/07/15 00:29:53;;;;;;;4.80;4.30;;;;;;;15.07;64.71;100249.76;131043;1269;107496;-72
2023/07/15 00:32:59;;;;;;;7.70;4.70;;;;;;;14.98;64.75;100249.63;131132;1265;107486;-72
2023/07/15 00:36:06;;;;;;;6.00;4.10;;;;;;;14.91;64.88;100246.54;130925;1263;140387;-73
2023/07/15 00:39:11;;;;;;;6.60;4.70;;;;;;;14.85;65.14;100242.59;131033;1256;108333;-72
2023/07/15 00:42:22;;;;;;;5.40;4.40;;;;;;;14.81;65.47;100238.55;131158;1263;107542;-72
2023/07/15 00:45:24;;;;;;;6.20;4.70;;;;;;;14.81;65.43;100237.36;131276;1251;107485;-72
2023/07/15 00:48:32;;;;;;;6.20;4.80;;;;;;;14.83;65.49;100237.17;131044;1255;96592;-72
2023/07/15 00:51:42;;;;;;;5.70;4.80;;;;;;;14.80;65.47;100240.39;131170;1256;107388;-72
2023/07/15 00:54:50;;;;;;;5.60;4.70;;;;;;;14.74;65.49;100243.06;130928;1256;107286;-72
2023/07/15 00:57:57;;;;;;;5.60;4.50;;;;;;;14.67;65.82;100240.92;131029;1265;107690;-72
2023/07/15 01:01:03;;;;;;;7.20;4.60;;;;;;;14.63;65.95;100237.17;131044;1252;107272;-72
2023/07/15 01:04:09;;;;;;;8.00;4.50;;;;;;;14.61;65.94;100240.91;130993;1261;107487;-72
2023/07/15 01:07:16;;;;;;;6.80;5.00;;;;;;;14.57;66.14;100234.30;130909;1251;107537;-72
2023/07/15 01:10:21;;;;;;;5.90;4.80;;;;;;;14.57;66.27;100229.63;131036;1254;106624;-72
2023/07/15 01:13:27;;;;;;;6.20;4.90;;;;;;;14.53;66.21;100228.21;131032;1254;107514;-72
2023/07/15 01:16:33;;;;;;;8.30;5.30;;;;;;;14.50;66.50;100227.00;131100;1254;107574;-72
2023/07/15 01:19:38;;;;;;;5.80;4.80;;;;;;;14.40;66.35;100225.95;131339;1256;106472;-72
2023/07/15 01:22:44;;;;;;;7.60;5.20;;;;;;;14.32;66.57;100225.61;131138;1255;107462;-72
2023/07/15 01:25:49;;;;;;;5.90;4.50;;;;;;;14.28;66.76;100221.17;131134;1254;107516;-72
2023/07/15 01:28:55;;;;;;;6.70;5.00;;;;;;;14.29;66.78;100219.44;131326;1261;107537;-72
2023/07/15 01:32:00;;;;;;;7.20;5.00;;;;;;;14.30;66.91;100215.08;131270;1263;106488;-72
2023/07/15 01:35:07;;;;;;;6.10;5.10;;;;;;;14.27;66.62;100212.66;131237;1254;107495;-73
2023/07/15 01:38:13;;;;;;;6.90;5.10;;;;;;;14.25;66.93;100212.51;131212;1262;107254;-73
2023/07/15 01:41:18;;;;;;;6.70;5.30;;;;;;;14.26;66.92;100210.98;131063;1257;107238;-73
2023/07/15 01:44:25;;;;;;;6.50;5.30;;;;;;;14.26;66.96;100208.35;131250;1253;107507;-72
2023/07/15 01:47:30;;;;;;;6.00;5.00;;;;;;;14.23;66.85;100210.58;131056;1251;107498;-72
2023/07/15 01:50:36;;;;;;;5.90;4.90;;;;;;;14.15;67.21;100207.55;131158;1256;107501;-73
2023/07/15 01:53:41;;;;;;;6.40;4.80;;;;;;;14.12;67.33;100208.26;130947;1264;106897;-72
2023/07/15 01:56:47;;;;;;;7.00;5.60;;;;;;;14.13;67.48;100206.91;130993;1256;107565;-73
2023/07/15 01:59:57;;;;;;;9.10;5.40;;;;;;;14.15;67.20;100207.42;131054;1263;107439;-72
2023/07/15 02:03:03;;;;;;;6.00;5.10;;;;;;;14.19;67.19;100209.11;131253;1251;107533;-72
2023/07/15 02:06:08;;;;;;;7.80;5.40;;;;;;;14.18;67.22;100201.39;130970;1255;107460;-72
2023/07/15 02:09:14;;;;;;;7.90;5.70;;;;;;;14.14;67.60;100201.41;131153;1262;107538;-73
2023/07/15 02:12:20;;;;;;;8.20;6.10;;;;;;;14.09;67.52;100203.79;131258;1257;107450;-72
2023/07/15 02:15:26;;;;;;;7.80;5.20;;;;;;;13.97;67.68;100200.77;131194;1253;107430;-72
2023/07/15 02:18:32;;;;;;;7.30;5.30;;;;;;;13.94;67.89;100200.52;131187;1255;107243;-72
2023/07/15 02:21:38;;;;;;;6.10;5.20;;;;;;;13.91;67.93;100202.08;130964;1251;107343;-71
2023/07/15 02:24:43;;;;;;;7.90;5.70;;;;;;;13.92;68.03;100203.08;131229;1251;106397;-71
2023/07/15 02:27:50;;;;;;;7.30;5.00;;;;;;;13.92;68.00;100203.48;131278;1257;107507;-71
2023/07/15 02:30:55;;;;;;;7.30;5.20;;;;;;;13.88;68.04;100209.62;131217;1254;106454;-71
2023/07/15 02:34:01;;;;;;;7.20;5.60;;;;;;;13.87;68.07;100208.64;131131;1253;107522;-71
2023/07/15 02:37:07;;;;;;;8.60;5.50;;;;;;;13.86;68.28;100207.34;130980;1254;107523;-71
2023/07/15 02:40:13;;;;;;;6.40;5.20;;;;;;;13.82;68.40;100211.25;131024;1255;107486;-73
2023/07/15 02:43:19;;;;;;;6.80;5.00;;;;;;;13.83;68.50;100205.25;130971;1260;108185;-72
2023/07/15 02:46:25;;;;;;;7.30;5.10;;;;;;;13.81;68.36;100202.04;131039;1254;106422;-72
2023/07/15 02:49:30;;;;;;;6.60;5.30;;;;;;;13.81;68.62;100201.33;131224;1254;105640;-72
2023/07/15 02:52:37;;;;;;;9.80;5.70;;;;;;;13.83;68.34;100200.41;131045;1263;107544;-72
2023/07/15 02:55:42;;;;;;;7.50;5.80;;;;;;;13.83;68.68;100196.26;131229;1251;107364;-72
2023/07/15 02:58:48;;;;;;;7.90;5.70;;;;;;;13.87;68.70;100193.09;131265;1254;107447;-72
2023/07/15 03:01:53;;;;;;;8.30;5.30;;;;;;;13.89;68.77;100189.16;131090;1251;107565;-72
2023/07/15 03:04:59;;;;;;;7.50;5.40;;;;;;;13.89;68.91;100186.47;131056;1254;107508;-71
2023/07/15 03:08:05;;;;;;;6.60;5.00;;;;;;;13.88;68.98;100187.45;131223;1263;107386;-73
2023/07/15 03:11:11;;;;;;;9.00;5.40;;;;;;;13.88;68.83;100188.89;131112;1255;106552;-71
2023/07/15 03:14:17;;;;;;;6.10;4.80;;;;;;;13.88;69.10;100192.45;131077;1251;107392;-73
2023/07/15 03:17:22;;;;;;;8.00;5.00;;;;;;;13.92;69.09;100191.77;131201;1257;108631;-72
2023/07/15 03:20:28;;;;;;;6.60;5.50;;;;;;;13.99;69.25;100193.18;131131;1256;107451;-73
2023/07/15 03:23:33;;;;;;;6.50;5.30;;;;;;;14.03;69.32;100194.88;131107;1252;107516;-72
2023/07/15 03:26:39;;;;;;;6.90;5.20;;;;;;;14.07;69.41;100196.29;131071;1257;107352;-72
2023/07/15 03:29:44;;;;;;;6.50;5.10;;;;;;;14.14;69.26;100195.73;131258;1258;107264;-72
2023/07/15 03:32:53;;;;;;;9.70;5.50;;;;;;;14.24;69.49;100197.15;131042;1254;107530;-72
2023/07/15 03:36:01;;;;;;;8.00;5.40;;;;;;;14.38;69.49;100197.59;131133;1251;107216;-73
2023/07/15 03:39:06;;;;;;;8.70;5.50;;;;;;;14.56;69.65;100201.91;131246;1251;107570;-72
2023/07/15 03:42:12;;;;;;;6.30;5.30;;;;;;;14.81;69.74;100203.31;131066;1251;107375;-73
2023/07/15 03:45:18;;;;;;;6.20;5.30;;;;;;;15.06;69.68;100204.11;131140;1254;107369;-72
2023/07/15 03:48:23;;;;;;;5.90;4.90;;;;;;;15.27;69.43;100204.42;131152;1251;107391;-72
2023/07/15 03:51:29;;;;;;;6.50;5.30;;;;;;;15.51;69.44;100201.52;131153;1254;107534;-73
2023/07/15 03:54:34;;;;;;;5.20;4.70;;;;;;;15.71;69.57;100205.06;131165;1254;107525;-72
2023/07/15 03:57:40;;;;;;;6.00;4.50;;;;;;;15.87;69.41;100204.18;131020;1263;107390;-72
2023/07/15 04:00:45;;;;;;;7.20;5.40;;;;;;;16.01;69.43;100200.45;131167;1251;107447;-72
2023/07/15 04:03:51;;;;;;;6.10;5.30;;;;;;;16.22;69.60;100193.80;131049;1255;107515;-72
2023/07/15 04:06:58;;;;;;;6.50;5.20;;;;;;;16.50;69.59;100193.04;131208;1253;107668;-73
2023/07/15 04:10:04;;;;;;;6.60;5.30;;;;;;;16.81;69.57;100191.11;131234;1254;107549;-73
2023/07/15 04:13:09;;;;;;;5.20;4.40;;;;;;;17.13;69.56;100193.30;131069;1251;107500;-73
2023/07/15 04:16:15;;;;;;;4.80;3.60;;;;;;;17.44;69.42;100197.85;130943;1254;107244;-73
2023/07/15 04:19:20;;;;;;;6.10;4.30;;;;;;;17.89;68.95;100193.86;130927;1251;107401;-73
2023/07/15 04:22:26;;;;;;;4.90;3.90;;;;;;;18.44;68.40;100188.05;130970;1263;108111;-73
2023/07/15 04:25:32;;;;;;;4.40;3.70;;;;;;;18.95;68.00;100190.61;130971;1254;107510;-73
2023/07/15 04:28:37;;;;;;;3.80;3.40;;;;;;;19.44;67.70;100183.58;130983;1255;107531;-73
2023/07/15 04:31:43;;;;;;;4.10;3.40;;;;;;;19.83;67.31;100182.52;130979;1254;105966;-73
2023/07/15 04:34:50;;;;;;;3.80;3.40;;;;;;;20.16;67.05;100175.73;131113;1251;107543;-73
2023/07/15 04:37:56;;;;;;;5.40;3.60;;;;;;;20.42;66.95;100172.00;131020;1265;107298;-73
2023/07/15 04:41:01;;;;;;;5.70;3.70;;;;;;;20.66;66.57;100166.34;131203;1251;108478;-74
2023/07/15 04:44:07;;;;;;;5.10;4.00;;;;;;;20.86;66.29;100162.33;131206;1254;107561;-73
2023/07/15 04:47:12;;;;;;;4.90;4.10;;;;;;;20.99;66.23;100161.66;131212;1254;106679;-74
2023/07/15 04:50:18;;;;;;;4.50;4.00;;;;;;;21.15;66.22;100165.08;130984;1254;107502;-73
2023/07/15 04:53:25;;;;;;;5.50;3.70;;;;;;;21.34;66.03;100169.01;131116;1254;107503;-74
2023/07/15 04:56:30;;;;;;;4.70;3.70;;;;;;;21.53;65.59;100172.13;131052;1251;107289;-73
2023/07/15 04:59:36;;;;;;;5.00;4.10;;;;;;;21.71;65.39;100169.76;131023;1251;107475;-74
2023/07/15 05:02:41;;;;;;;3.50;3.20;;;;;;;21.87;65.05;100167.73;131133;1254;107479;-73
2023/07/15 05:05:47;;;;;;;3.70;3.30;;;;;;;22.01;64.85;100171.83;131098;1251;107414;-74
2023/07/15 05:08:52;;;;;;;7.00;3.70;;;;;;;22.15;64.61;100167.65;131097;1254;107521;-73
2023/07/15 05:11:58;;;;;;;5.50;4.00;;;;;;;22.30;64.46;100170.39;131146;1251;108077;-76
2023/07/15 05:15:04;;;;;;;4.60;3.40;;;;;;;22.43;64.04;100168.98;131055;1254;107367;-74
2023/07/15 05:18:11;;;;;;;4.50;3.70;;;;;;;22.61;63.95;100170.89;131024;1251;107375;-74
2023/07/15 05:21:17;;;;;;;4.70;3.70;;;;;;;22.81;63.56;100175.29;131086;1255;107111;-74
2023/07/15 05:24:24;;;;;;;4.30;3.30;;;;;;;23.01;63.28;100175.12;131031;1265;109252;-74
2023/07/15 05:27:30;;;;;;;4.00;3.60;;;;;;;23.13;63.08;100170.48;131262;1251;107323;-74
2023/07/15 05:30:37;;;;;;;4.70;3.40;;;;;;;23.18;62.78;100170.77;131058;1251;107428;-71
2023/07/15 05:33:44;;;;;;;3.80;3.50;;;;;;;23.16;62.50;100169.80;131003;1254;107552;-74
2023/07/15 05:36:50;;;;;;;4.10;3.70;;;;;;;23.11;62.31;100169.81;131010;1254;105682;-74
2023/07/15 05:39:55;;;;;;;3.60;3.20;;;;;;;23.06;62.13;100167.02;131023;1254;107370;-74
2023/07/15 05:43:01;;;;;;;4.20;3.50;;;;;;;23.03;61.97;100163.96;131071;1249;107551;-75
2023/07/15 05:46:06;;;;;;;6.60;3.60;;;;;;;23.01;61.86;100158.33;131114;1249;107323;-76
2023/07/15 05:49:12;;;;;;;3.60;3.20;;;;;;;22.99;61.75;100157.03;131013;1253;107624;-74
2023/07/15 05:52:17;;;;;;;4.20;3.40;;;;;;;22.98;61.76;100158.46;131017;1251;107338;-74
2023/07/15 05:55:23;;;;;;;4.50;3.10;;;;;;;22.98;61.63;100162.34;130997;1265;108098;-74
2023/07/15 05:58:29;;;;;;;4.40;3.10;;;;;;;23.00;61.47;100157.55;131223;1254;106271;-72
2023/07/15 06:01:34;;;;;;;3.40;3.00;;;;;;;23.05;61.23;100153.88;131158;1254;107545;-72
2023/07/15 06:04:40;;;;;;;4.90;3.20;;;;;;;23.11;61.25;100152.33;130949;1253;107531;-73
2023/07/15 06:07:45;;;;;;;3.70;3.10;;;;;;;23.20;60.85;100156.16;131142;1265;107165;-73
2023/07/15 06:10:51;;;;;;;4.20;3.30;;;;;;;23.25;60.38;100153.46;131016;1253;106465;-73
2023/07/15 06:14:00;;;;;;;3.80;3.20;;;;;;;23.31;60.16;100153.10;131159;1254;106775;-72
2023/07/15 06:17:06;;;;;;;4.30;3.40;;;;;;;23.37;59.97;100151.35;131271;1251;107236;-73
2023/07/15 06:20:12;;;;;;;4.30;2.90;;;;;;;23.42;59.85;100152.17;131044;1265;108618;-73
2023/07/15 06:23:18;;;;;;;3.50;3.10;;;;;;;23.44;59.34;100153.74;130951;1251;108718;-72
2023/07/15 06:26:24;;;;;;;4.00;2.80;;;;;;;23.45;59.01;100155.13;131017;1256;106647;-72
2023/07/15 06:29:29;;;;;;;3.30;3.00;;;;;;;23.46;58.83;100155.35;131020;1261;107491;-73
2023/07/15 06:32:35;;;;;;;2.80;2.60;;;;;;;23.48;58.85;100152.46;131023;1251;107503;-72
2023/07/15 06:35:41;;;;;;;4.50;2.90;;;;;;;23.52;58.96;100151.08;130983;1254;107472;-73
2023/07/15 06:38:46;;;;;;;5.30;2.60;;;;;;;23.57;57.93;100151.11;131120;1254;107506;-73
2023/07/15 06:41:54;;;;;;;2.80;2.50;;;;;;;23.61;58.41;100146.19;131056;1254;107612;-72
2023/07/15 06:44:59;;;;;;;2.90;2.60;;;;;;;23.61;58.03;100146.29;131104;1254;106431;-73
2023/07/15 06:48:06;;;;;;;3.40;2.80;;;;;;;23.60;57.72;100142.08;131245;1255;107535;-73
2023/07/15 06:51:14;;;;;;;4.20;3.70;;;;;;;23.60;57.63;100140.66;131010;1250;107249;-73
2023/07/15 06:54:20;;;;;;;3.10;2.70;;;;;;;23.62;57.68;100141.73;131356;1251;107354;-72
2023/07/15 06:57:28;;;;;;;4.20;2.60;;;;;;;23.70;57.44;100143.52;131034;1254;107578;-73
2023/07/15 07:00:33;;;;;;;6.30;4.80;;;;;;;23.80;57.67;100139.48;131043;1250;107330;-73
2023/07/15 07:03:39;;;;;;;4.30;2.90;;;;;;;23.98;57.61;100144.09;131403;1249;107534;-74
2023/07/15 07:06:44;;;;;;;5.70;3.10;;;;;;;24.17;57.26;100146.33;131228;1264;107491;-75
2023/07/15 07:09:50;;;;;;;5.20;3.10;;;;;;;24.35;56.90;100146.70;131003;1252;107586;-74
2023/07/15 07:12:55;;;;;;;5.00;2.90;;;;;;;24.51;56.79;100143.92;131137;1254;107828;-74
2023/07/15 07:16:01;;;;;;;4.30;3.00;;;;;;;24.65;56.51;100136.69;131095;1255;107523;-75
2023/07/15 07:19:07;;;;;;;3.10;2.70;;;;;;;24.66;56.21;100128.20;131065;1253;107438;-74
2023/07/15 07:22:12;;;;;;;3.10;2.80;;;;;;;24.64;55.90;100121.98;131092;1265;107242;-74
2023/07/15 07:25:18;;;;;;;4.00;2.80;;;;;;;24.64;55.84;100120.94;131154;1251;107528;-74
2023/07/15 07:28:38;;;;;;;3.80;3.00;;;;;;;24.66;55.76;100116.19;131160;1254;107577;-74
2023/07/15 07:31:43;;;;;;;3.90;2.80;;;;;;;24.68;55.43;100115.23;131029;1254;107475;-74
2023/07/15 07:34:49;;;;;;;3.00;2.70;;;;;;;24.71;55.12;100114.89;130974;1254;107532;-77
2023/07/15 07:37:55;;;;;;;4.10;2.80;;;;;;;24.72;54.92;100113.82;130911;1253;107662;-74
2023/07/15 07:41:07;;;;;;;4.60;3.20;;;;;;;24.74;55.05;100112.76;131158;1250;107547;-74
2023/07/15 07:44:11;;;;;;;;;;;;;;;24.80;55.07;100111.05;131000;1254;107251;-75
2023/07/15 07:47:16;;;;;;;3.30;2.80;;;;;;;24.84;54.71;100117.60;131052;1254;107568;-74
2023/07/15 07:50:22;;;;;;;4.80;3.10;;;;;;;24.88;54.54;100117.17;131132;1255;107507;-75
2023/07/15 07:53:28;;;;;;;4.60;3.30;;;;;;;24.91;53.95;100113.81;131104;1254;107431;-75
2023/07/15 07:56:33;;;;;;;3.60;3.10;;;;;;;24.97;54.06;100111.83;131206;1255;107606;-75
2023/07/15 07:59:39;;;;;;;5.10;3.40;;;;;;;25.03;53.86;100111.86;131205;1254;107483;-81
2023/07/15 08:02:45;;;;;;;3.50;3.00;;;;;;;25.14;53.92;100120.19;131264;1264;107170;-80
2023/07/15 08:05:50;;;;;;;4.50;3.20;;;;;;;25.24;54.05;100116.25;131159;1254;107451;-80
2023/07/15 08:08:56;;;;;;;4.60;3.60;;;;;;;25.31;53.34;100114.21;131282;1250;107603;-80
2023/07/15 08:12:02;;;;;;;4.50;3.30;;;;;;;25.37;53.59;100109.64;131057;1251;107452;-80
2023/07/15 08:15:10;;;;;;;4.60;3.20;;;;;;;25.47;53.28;100108.79;131073;1251;107411;-81
2023/07/15 08:18:17;;;;;;;4.80;3.50;;;;;;;25.55;53.26;100103.67;131103;1254;106871;-80
2023/07/15 08:21:22;;;;;;;3.50;3.10;;;;;;;25.63;53.12;100104.63;131166;1253;107363;-78
2023/07/15 08:24:28;;;;;;;3.80;3.30;;;;;;;25.73;53.06;100105.13;130992;1251;107551;-78
2023/07/15 08:27:33;;;;;;;3.80;3.30;;;;;;;25.81;53.04;100104.17;131145;1250;107415;-79
2023/07/15 08:30:39;;;;;;;5.30;3.40;;;;;;;25.90;52.51;100101.96;131297;1250;107235;-81
2023/07/15 08:33:45;;;;;;;3.40;3.10;;;;;;;25.96;52.20;100104.17;131166;1251;107463;-79
2023/07/15 08:36:51;;;;;;;3.90;3.20;;;;;;;26.02;52.03;100100.79;131143;1250;107705;-79
2023/07/15 08:39:57;;;;;;;3.80;3.40;;;;;;;26.10;52.04;100095.18;131116;1254;107356;-79
2023/07/15 08:43:04;;;;;;;3.40;3.00;;;;;;;26.23;52.30;100092.83;131223;1254;107642;-79
2023/07/15 08:46:16;;;;;;;3.90;2.80;;;;;;;26.36;52.19;100096.15;131157;1252;107250;-79
2023/07/15 08:49:23;;;;;;;3.20;2.90;;;;;;;26.43;51.24;100091.84;131270;1250;107242;-79
2023/07/15 08:52:30;;;;;;;3.50;3.00;;;;;;;26.50;51.10;100094.45;131290;1252;107264;-79
2023/07/15 08:55:36;;;;;;;3.60;2.70;;;;;;;26.56;50.85;100092.52;131263;1254;107519;-80
2023/07/15 08:58:42;;;;;;;5.00;2.70;;;;;;;26.60;50.61;100094.55;131306;1250;107368;-79
2023/07/15 09:01:49;;;;;;;3.60;2.70;;;;;;;26.67;50.82;100088.47;131284;1253;107428;-80
2023/07/15 09:04:54;;;;;;;4.90;2.80;;;;;;;26.74;50.20;100090.48;131371;1254;107454;-80
2023/07/15 09:08:09;;;;;;;4.20;3.00;;;;;;;26.77;49.66;100089.30;131148;1255;107506;-80
2023/07/15 09:11:15;;;;;;;5.10;3.10;;;;;;;26.84;49.81;100087.98;131286;1251;107515;-80
2023/07/15 09:14:20;;;;;;;3.60;2.80;;;;;;;26.91;49.84;100086.96;131198;1254;105796;-80
2023/07/15 09:17:26;;;;;;;3.80;2.90;;;;;;;26.96;49.37;100083.98;131083;1252;107519;-80
2023/07/15 09:20:31;;;;;;;3.30;3.00;;;;;;;26.99;49.44;100081.27;131102;1255;107400;-80
2023/07/15 09:23:40;;;;;;;3.20;2.70;;;;;;;27.06;49.24;100079.32;131245;1251;107464;-80
2023/07/15 09:26:49;;;;;;;2.90;2.40;;;;;;;27.12;48.66;100075.55;131207;1254;107271;-80
2023/07/15 09:29:55;;;;;;;3.30;2.50;;;;;;;27.16;48.81;100073.94;131237;1254;106975;-80
2023/07/15 09:33:00;;;;;;;3.80;2.60;;;;;;;27.20;48.81;100072.48;131362;1249;107572;-80
2023/07/15 09:36:06;;;;;;;2.60;2.40;;;;;;;27.28;48.54;100071.11;131320;1250;107654;-80
2023/07/15 09:39:17;;;;;;;2.90;2.50;;;;;;;27.31;48.02;100070.86;131284;1251;107558;-80
2023/07/15 09:42:23;;;;;;;2.80;2.60;;;;;;;27.33;47.60;100070.96;131275;1252;107279;-80
2023/07/15 09:45:36;;;;;;;4.30;2.50;;;;;;;27.38;47.85;100069.67;131230;1253;107599;-80
2023/07/15 09:48:42;;;;;;;4.90;2.50;;;;;;;27.42;47.18;100057.94;131485;1265;107773;-79
2023/07/15 09:51:47;;;;;;;3.70;2.40;;;;;;;27.43;46.84;100059.81;131543;1250;107330;-80
2023/07/15 09:54:54;;;;;;;3.40;2.50;;;;;;;27.47;46.56;100058.13;131390;1254;107627;-79
2023/07/15 09:58:07;;;;;;;4.50;2.70;;;;;;;27.53;46.72;100051.73;131496;1253;106284;-81
2023/07/15 10:01:18;;;;;;;4.00;2.70;;;;;;;27.57;46.39;100054.42;131308;1252;109427;-80
2023/07/15 10:04:32;;;;;;;4.10;2.60;;;;;;;27.62;46.16;100054.86;131474;1250;107536;-80
2023/07/15 10:07:40;;;;;;;6.10;3.60;;;;;;;27.72;46.28;100048.30;131488;1254;107638;-80
2023/07/15 10:10:46;;;;;;;4.70;2.90;;;;;;;27.84;46.15;100049.36;131329;1253;107588;-81
2023/07/15 10:13:53;;;;;;;8.20;3.40;;;;;;;27.95;45.94;100053.08;131459;1250;107537;-81
2023/07/15 10:17:12;;;;;;;3.50;2.80;;;;;;;28.02;45.53;100045.99;131437;1249;107454;-80
2023/07/15 10:20:18;;;;;;;5.70;2.70;;;;;;;28.10;45.68;100042.21;131582;1252;107564;-80
2023/07/15 10:23:29;;;;;;;4.60;2.60;;;;;;;28.23;45.11;100044.95;131530;1254;107528;-79
2023/07/15 10:26:36;;;;;;;3.00;2.50;;;;;;;28.39;45.21;100042.84;131510;1252;108725;-80
2023/07/15 10:29:43;;;;;;;3.30;2.50;;;;;;;28.53;44.70;100031.05;131215;1254;106982;-79
2023/07/15 10:33:23;;;;;;;3.10;2.30;;;;;;;28.51;44.74;100033.17;131248;1249;107553;-82
2023/07/15 10:36:41;;;;;;;3.00;2.70;;;;;;;28.40;44.51;100037.52;131261;1254;107534;-81
2023/07/15 10:39:47;;;;;;;2.50;2.30;;;;;;;28.47;44.56;100028.89;131225;1254;107550;-81
2023/07/15 10:43:07;;;;;;;3.10;2.30;;;;;;;28.64;44.61;100036.89;131125;1250;109139;-80
2023/07/15 10:46:19;;;;;;;4.60;2.60;;;;;;;28.76;43.84;100029.39;131303;1256;108158;-79
2023/07/15 10:49:25;;;;;;;3.20;2.60;;;;;;;28.92;43.43;100030.53;131180;1254;107544;-79
2023/07/15 10:52:31;;;;;;;4.20;2.40;;;;;;;29.09;43.17;100033.95;131350;1254;107528;-80
2023/07/15 10:55:36;;;;;;;4.40;2.50;;;;;;;29.22;43.30;100034.77;131218;1251;108953;-81
2023/07/15 10:58:42;;;;;;;2.90;2.60;;;;;;;29.25;42.20;100023.93;131180;1254;107293;-80
2023/07/15 11:01:48;;;;;;;2.50;2.30;;;;;;;29.21;42.66;100020.55;131183;1253;108089;-80
2023/07/15 11:04:54;;;;;;;3.20;2.30;;;;;;;29.21;42.33;100023.02;131104;1254;107492;-79
2023/07/15 11:08:00;;;;;;;4.30;2.60;;;;;;;29.25;42.32;100022.89;131123;1253;106108;-82
2023/07/15 11:11:07;;;;;;;3.50;2.60;;;;;;;29.30;42.31;100013.91;131178;1254;107684;-80
2023/07/15 11:14:25;;;;;;;4.50;2.40;;;;;;;29.34;42.32;100009.74;131298;1254;107176;-81
2023/07/15 11:17:31;;;;;;;3.60;2.30;;;;;;;29.37;41.87;100007.15;131267;1254;108351;-80
2023/07/15 11:20:37;;;;;;;3.40;2.40;;;;;;;29.37;41.61;100003.08;131235;1254;107563;-80
2023/07/15 11:23:45;;;;;;;3.80;2.50;;;;;;;29.37;41.57;99998.02;131618;1250;107217;-78
2023/07/15 11:26:51;;;;;;;2.70;2.30;;;;;;;29.41;41.02;99998.56;131442;1254;107560;-80
2023/07/15 11:30:01;;;;;;;4.20;2.20;;;;;;;29.33;40.53;99997.33;131013;1254;107025;-80
2023/07/15 11:33:08;;;;;;;3.00;2.70;;;;;;;29.33;40.16;99999.14;131217;1255;107487;-81
2023/07/15 11:36:13;;;;;;;4.80;2.20;;;;;;;29.38;39.94;99994.50;131251;1252;107429;-81
2023/07/15 11:39:19;;;;;;;2.70;2.20;;;;;;;29.41;40.18;99988.38;131226;1252;107960;-80
2023/07/15 11:42:25;;;;;;;3.90;2.40;;;;;;;29.37;39.82;99986.00;131164;1253;108663;-80
2023/07/15 11:45:31;;;;;;;2.30;2.10;;;;;;;29.37;39.66;99989.73;131244;1254;107879;-81
2023/07/15 11:48:38;;;;;;;3.50;2.20;;;;;;;29.40;39.72;99981.79;131276;1254;107569;-79
2023/07/15 11:51:45;;;;;;;2.70;2.30;;;;;;;29.45;39.25;99981.66;131026;1250;107452;-81
2023/07/15 11:54:50;;;;;;;3.80;2.30;;;;;;;29.49;39.01;99980.63;131068;1250;107741;-79
2023/07/15 11:57:56;;;;;;;2.80;2.20;;;;;;;29.53;39.21;99979.55;131234;1254;107967;-79
2023/07/15 12:01:02;;;;;;;2.30;2.10;;;;;;;29.52;38.78;99974.13;131213;1250;107475;-81
2023/07/15 12:04:15;;;;;;;2.50;2.30;;;;;;;29.47;38.73;99973.77;131192;1250;107367;-78
2023/07/15 12:07:23;;;;;;;3.80;2.70;;;;;;;29.50;38.88;99970.06;131221;1252;107527;-79
2023/07/15 12:10:28;;;;;;;3.80;3.00;;;;;;;29.58;39.19;99968.20;131352;1249;107526;-79
2023/07/15 12:13:34;;;;;;;3.70;2.30;;;;;;;29.71;38.77;99966.60;131158;1251;107460;-79
2023/07/15 12:16:41;;;;;;;2.80;2.40;;;;;;;29.83;38.42;99965.27;131188;1250;107219;-80
2023/07/15 12:19:49;;;;;;;2.80;2.40;;;;;;;29.83;38.48;99964.17;131347;1254;107661;-80
2023/07/15 12:22:55;;;;;;;2.50;2.20;;;;;;;29.94;38.26;99966.27;131348;1255;107533;-80
2023/07/15 12:26:00;;;;;;;2.30;2.10;;;;;;;30.10;38.47;99962.70;131201;1256;107340;-79
2023/07/15 12:29:09;;;;;;;2.80;2.40;;;;;;;30.20;38.15;99964.38;131205;1252;107395;-79
2023/07/15 12:32:14;;;;;;;3.00;2.00;;;;;;;30.21;37.79;99953.84;131028;1249;108981;-79
2023/07/15 12:35:23;;;;;;;2.60;2.20;;;;;;;30.22;37.53;99949.48;130936;1252;131656;-80
2023/07/15 12:38:28;;;;;;;2.50;2.20;;;;;;;30.22;37.49;99954.27;131260;1250;107525;-79
2023/07/15 12:41:34;;;;;;;2.20;2.00;;;;;;;30.23;37.65;99948.21;131126;1251;108039;-79
2023/07/15 12:44:40;;;;;;;3.10;2.10;;;;;;;30.23;37.31;99943.42;131289;1254;107371;-80
2023/07/15 12:47:45;;;;;;;2.60;2.10;;;;;;;30.22;37.12;99945.52;131302;1254;107429;-79
2023/07/15 12:50:51;;;;;;;3.50;2.20;;;;;;;30.24;36.96;99951.33;131174;1255;107267;-80
2023/07/15 12:53:56;;;;;;;3.40;2.30;;;;;;;30.28;36.90;99948.10;131107;1254;107993;-79
2023/07/15 12:57:02;;;;;;;2.30;2.10;;;;;;;30.30;36.82;99943.12;131226;1250;107692;-80
2023/07/15 13:00:11;;;;;;;2.50;2.30;;;;;;;30.28;36.40;99942.14;131241;1252;107447;-80
2023/07/15 13:03:16;;;;;;;2.70;2.10;;;;;;;30.25;36.16;99936.67;131865;1254;106780;-79
2023/07/15 13:06:24;;;;;;;2.70;2.40;;;;;;;30.27;35.84;99934.79;131131;1262;107494;-79
2023/07/15 13:09:30;;;;;;;3.00;2.20;;;;;;;30.23;36.10;99927.24;131101;1253;107433;-80
2023/07/15 13:12:36;;;;;;;4.10;2.70;;;;;;;30.21;35.96;99926.33;130962;1251;107439;-79
2023/07/15 13:15:45;;;;;;;2.90;2.10;;;;;;;30.19;35.53;99923.59;131193;1255;107418;-79
2023/07/15 13:18:50;;;;;;;2.70;2.30;;;;;;;30.14;35.64;99922.77;131266;1251;107232;-80
2023/07/15 13:21:56;;;;;;;3.30;2.30;;;;;;;30.16;35.77;99924.02;131051;1255;107545;-79
2023/07/15 13:25:01;;;;;;;3.80;2.10;;;;;;;30.20;35.55;99924.79;131211;1250;107655;-80
2023/07/15 13:28:07;;;;;;;2.50;2.30;;;;;;;30.23;35.58;99920.68;131110;1250;108354;-79
2023/07/15 13:31:13;;;;;;;2.50;2.10;;;;;;;30.26;35.26;99925.27;131145;1253;107425;-79
2023/07/15 13:34:18;;;;;;;3.40;2.20;;;;;;;30.27;34.94;99920.75;131054;1253;107501;-79
2023/07/15 13:37:25;;;;;;;3.10;2.10;;;;;;;30.27;35.11;99919.70;131229;1255;107478;-80
2023/07/15 13:40:31;;;;;;;2.60;2.10;;;;;;;30.24;34.97;99916.48;131244;1255;107988;-80
2023/07/15 13:43:37;;;;;;;3.10;2.00;;;;;;;30.23;35.15;99908.52;131446;1249;106449;-80
2023/07/15 13:46:42;;;;;;;2.60;2.10;;;;;;;30.24;34.88;99909.13;131231;1254;107440;-80
2023/07/15 13:49:49;;;;;;;4.10;2.10;;;;;;;30.18;34.50;99903.34;131187;1253;107353;-80
2023/07/15 13:52:54;;;;;;;2.20;2.00;;;;;;;30.13;34.61;99898.06;131110;1253;107381;-81
2023/07/15 13:56:00;;;;;;;2.60;2.10;;;;;;;30.12;34.73;99903.91;131158;1253;107521;-80
2023/07/15 13:59:06;;;;;;;2.30;2.10;;;;;;;30.13;34.65;99904.39;131168;1250;107375;-80
2023/07/15 14:02:18;;;;;;;2.10;1.90;;;;;;;30.15;34.43;99904.15;131213;1251;107227;-80
2023/07/15 14:05:24;;;;;;;2.40;2.00;;;;;;;30.17;34.41;99905.52;131211;1254;106838;-79
2023/07/15 14:08:32;;;;;;;2.30;2.10;;;;;;;30.18;34.61;99906.48;131191;1250;107531;-80
2023/07/15 14:11:39;;;;;;;3.50;2.10;;;;;;;30.21;34.32;99907.38;131153;1255;107523;-82